createdAt,value
2018-02-03T00:01:16.820Z,36.58
2018-02-03T00:02:17.586Z,37.29
2018-02-03T00:05:01.578Z,40.14
2018-02-03T00:06:01.896Z,39.52
2018-02-03T00:08:45.430Z,39.54
2018-02-03T00:09:45.415Z,40.44
2018-02-03T00:12:30.204Z,42.14
2018-02-03T00:13:30.416Z,39.36
2018-02-03T00:16:14.199Z,38.78
2018-02-03T00:17:14.166Z,41.54
2018-02-03T00:19:57.980Z,39.88
2018-02-03T00:20:57.944Z,39.85
2018-02-03T00:23:43.258Z,37.35
2018-02-03T00:24:42.751Z,38.80
2018-02-03T00:27:27.190Z,40.63
2018-02-03T00:28:26.656Z,45.06
2018-02-03T00:31:11.080Z,39.66
2018-02-03T00:32:10.605Z,41.01
2018-02-03T00:34:54.907Z,36.69
2018-02-03T00:35:54.808Z,38.31
2018-02-03T00:38:37.809Z,42.74
2018-02-03T00:39:37.327Z,38.02
2018-02-03T00:42:22.069Z,39.91
2018-02-03T00:43:21.976Z,39.44
2018-02-03T00:46:05.995Z,42.04
2018-02-03T00:47:05.973Z,41.29
2018-02-03T00:49:50.819Z,41.24
2018-02-03T00:50:02.701Z,1.64
2018-02-03T00:53:34.735Z,38.84
2018-02-03T00:54:34.176Z,40.60
2018-02-03T00:57:17.507Z,41.40
2018-02-03T00:58:18.523Z,42.56
2018-02-03T01:01:01.844Z,37.97
2018-02-03T01:02:01.774Z,41.27
2018-02-03T01:04:46.200Z,37.95
2018-02-03T01:05:45.801Z,38.87
2018-02-03T01:08:30.212Z,42.39
2018-02-03T01:09:30.456Z,38.15
2018-02-03T01:12:14.504Z,38.44
2018-02-03T01:13:13.902Z,36.60
2018-02-03T01:15:57.851Z,35.65
2018-02-03T01:16:57.846Z,35.13
2018-02-03T01:19:42.259Z,30.00
2018-02-03T01:20:42.626Z,29.02
2018-02-03T01:21:42.590Z,27.04
2018-02-03T01:22:42.614Z,29.89
2018-02-03T01:23:42.591Z,26.72
2018-02-03T01:24:42.558Z,23.71
2018-02-03T01:25:42.602Z,25.64
2018-02-03T01:26:43.027Z,26.56
2018-02-03T01:27:42.522Z,25.26
2018-02-03T01:28:42.560Z,28.68
2018-02-03T01:29:43.045Z,25.25
2018-02-03T01:30:42.198Z,27.34
2018-02-03T01:31:42.090Z,27.07
2018-02-03T01:32:42.086Z,24.28
2018-02-03T01:33:42.384Z,24.21
2018-02-03T01:34:42.421Z,24.30
2018-02-03T01:35:42.408Z,26.67
2018-02-03T01:36:42.400Z,27.46
2018-02-03T01:37:42.439Z,28.12
2018-02-03T01:38:42.010Z,26.90
2018-02-03T01:39:42.011Z,25.33
2018-02-03T01:40:41.989Z,24.92
2018-02-03T01:41:41.981Z,24.31
2018-02-03T01:42:41.973Z,21.98
2018-02-03T01:43:41.969Z,22.93
2018-02-03T01:44:41.967Z,24.26
2018-02-03T01:45:41.938Z,23.26
2018-02-03T01:46:41.936Z,20.32
2018-02-03T01:47:41.939Z,22.08
2018-02-03T01:48:41.943Z,21.76
2018-02-03T01:49:41.939Z,21.81
2018-02-03T01:50:41.910Z,21.38
2018-02-03T01:51:41.903Z,20.97
2018-02-03T01:52:41.886Z,17.97
2018-02-03T01:53:41.879Z,21.09
2018-02-03T01:54:41.869Z,23.75
2018-02-03T01:55:41.862Z,20.51
2018-02-03T01:56:41.852Z,20.85
2018-02-03T01:57:41.836Z,20.47
2018-02-03T01:58:41.840Z,21.53
2018-02-03T01:59:41.844Z,22.48
2018-02-03T02:00:41.816Z,21.56
2018-02-03T02:01:41.810Z,18.70
2018-02-03T02:02:41.804Z,18.14
2018-02-03T02:03:41.813Z,20.52
2018-02-03T02:04:41.785Z,20.59
2018-02-03T02:05:41.780Z,20.46
2018-02-03T02:06:41.769Z,20.13
2018-02-03T02:07:41.752Z,20.89
2018-02-03T02:08:41.749Z,22.79
2018-02-03T02:09:41.738Z,23.30
2018-02-03T02:10:41.723Z,18.96
2018-02-03T02:11:41.711Z,19.38
2018-02-03T02:12:41.715Z,18.57
2018-02-03T02:13:41.704Z,19.32
2018-02-03T02:14:41.698Z,21.22
2018-02-03T02:15:41.685Z,18.16
2018-02-03T02:16:41.697Z,18.14
2018-02-03T02:17:41.671Z,19.70
2018-02-03T02:18:41.673Z,19.43
2018-02-03T02:19:41.645Z,19.34
2018-02-03T02:20:41.646Z,21.73
2018-02-03T02:21:41.636Z,18.86
2018-02-03T02:22:41.624Z,20.12
2018-02-03T02:23:41.614Z,19.87
2018-02-03T02:24:41.608Z,21.40
2018-02-03T02:25:41.594Z,20.12
2018-02-03T02:26:41.582Z,18.01
2018-02-03T02:27:41.577Z,19.89
2018-02-03T02:28:41.572Z,18.07
2018-02-03T02:29:41.557Z,20.59
2018-02-03T02:30:41.555Z,20.21
2018-02-03T02:31:41.555Z,20.53
2018-02-03T02:32:41.544Z,20.24
2018-02-03T02:33:41.531Z,19.14
2018-02-03T02:34:41.538Z,19.38
2018-02-03T02:35:41.508Z,19.53
2018-02-03T02:36:41.513Z,21.06
2018-02-03T02:37:41.483Z,25.56
2018-02-03T02:38:41.479Z,23.13
2018-02-03T02:39:41.478Z,21.97
2018-02-03T02:40:41.458Z,18.65
2018-02-03T02:41:41.454Z,19.89
2018-02-03T02:42:41.447Z,17.39
2018-02-03T02:43:41.435Z,20.12
2018-02-03T02:44:41.436Z,21.00
2018-02-03T02:45:41.418Z,19.50
2018-02-03T02:46:41.414Z,19.86
2018-02-03T02:47:41.402Z,20.71
2018-02-03T02:48:41.397Z,20.52
2018-02-03T02:49:41.380Z,18.45
2018-02-03T02:50:41.391Z,19.79
2018-02-03T02:51:41.360Z,21.41
2018-02-03T02:52:41.379Z,22.34
2018-02-03T02:53:41.364Z,20.49
2018-02-03T02:54:41.333Z,20.55
2018-02-03T02:55:41.331Z,20.77
2018-02-03T02:56:41.313Z,20.52
2018-02-03T02:57:43.275Z,22.81
2018-02-03T02:58:41.316Z,23.48
2018-02-03T02:59:41.293Z,23.50
2018-02-03T03:00:41.288Z,21.74
2018-02-03T03:01:41.276Z,22.36
2018-02-03T03:02:41.266Z,25.25
2018-02-03T03:03:41.266Z,25.58
2018-02-03T03:04:41.249Z,27.66
2018-02-03T03:05:41.238Z,22.38
2018-02-03T03:06:41.228Z,23.69
2018-02-03T03:07:41.240Z,26.36
2018-02-03T03:08:41.214Z,28.15
2018-02-03T03:09:41.221Z,25.66
2018-02-03T03:10:41.205Z,26.65
2018-02-03T03:11:41.187Z,25.97
2018-02-03T03:12:41.180Z,28.74
2018-02-03T03:13:41.170Z,27.98
2018-02-03T03:14:41.161Z,29.45
2018-02-03T03:15:41.153Z,32.13
2018-02-03T03:16:41.140Z,28.39
2018-02-03T03:17:41.128Z,30.30
2018-02-03T03:18:41.120Z,28.24
2018-02-03T03:19:41.109Z,29.54
2018-02-03T03:20:41.111Z,30.54
2018-02-03T03:21:41.095Z,29.72
2018-02-03T03:22:41.078Z,28.83
2018-02-03T03:23:41.091Z,27.68
2018-02-03T03:24:41.075Z,28.39
2018-02-03T03:25:41.061Z,29.99
2018-02-03T03:26:41.055Z,28.69
2018-02-03T03:27:41.071Z,30.80
2018-02-03T03:28:41.054Z,28.75
2018-02-03T03:29:41.029Z,30.95
2018-02-03T03:30:41.017Z,30.39
2018-02-03T03:31:41.005Z,26.36
2018-02-03T03:32:40.993Z,25.26
2018-02-03T03:33:40.999Z,26.36
2018-02-03T03:34:40.985Z,25.70
2018-02-03T03:35:40.968Z,27.22
2018-02-03T03:36:40.959Z,25.56
2018-02-03T03:37:40.950Z,24.63
2018-02-03T03:38:40.946Z,25.79
2018-02-03T03:39:40.931Z,28.21
2018-02-03T03:40:40.937Z,27.42
2018-02-03T03:41:40.918Z,27.72
2018-02-03T03:42:40.919Z,27.30
2018-02-03T03:43:40.896Z,25.48
2018-02-03T03:44:40.890Z,27.08
2018-02-03T03:45:40.903Z,26.52
2018-02-03T03:46:40.894Z,24.92
2018-02-03T03:47:40.865Z,29.96
2018-02-03T03:48:40.850Z,25.71
2018-02-03T03:49:40.841Z,21.22
2018-02-03T03:50:40.835Z,22.46
2018-02-03T03:51:40.821Z,23.43
2018-02-03T03:52:40.823Z,25.68
2018-02-03T03:53:40.816Z,24.57
2018-02-03T03:54:40.797Z,25.80
2018-02-03T03:55:40.789Z,23.59
2018-02-03T03:56:40.787Z,23.15
2018-02-03T03:57:40.779Z,20.42
2018-02-03T03:58:40.777Z,23.65
2018-02-03T03:59:40.755Z,24.07
2018-02-03T04:00:40.763Z,22.18
2018-02-03T04:01:40.753Z,24.56
2018-02-03T04:02:40.742Z,23.02
2018-02-03T04:03:40.717Z,22.21
2018-02-03T04:04:40.716Z,24.22
2018-02-03T04:05:40.709Z,23.78
2018-02-03T04:06:40.688Z,22.06
2018-02-03T04:07:40.685Z,22.79
2018-02-03T04:08:40.673Z,19.38
2018-02-03T04:09:40.671Z,17.67
2018-02-03T04:10:40.657Z,19.48
2018-02-03T04:11:40.651Z,25.96
2018-02-03T04:12:40.658Z,25.37
2018-02-03T04:13:40.640Z,27.96
2018-02-03T04:14:40.655Z,26.55
2018-02-03T04:15:40.633Z,25.24
2018-02-03T04:16:40.601Z,25.69
2018-02-03T04:17:40.606Z,24.82
2018-02-03T04:18:40.585Z,24.42
2018-02-03T04:19:40.581Z,23.98
2018-02-03T04:20:40.565Z,22.56
2018-02-03T04:21:40.554Z,23.95
2018-02-03T04:22:40.546Z,24.42
2018-02-03T04:23:40.541Z,22.38
2018-02-03T04:24:40.539Z,23.46
2018-02-03T04:25:40.538Z,21.35
2018-02-03T04:26:40.510Z,23.61
2018-02-03T04:27:42.306Z,25.49
2018-02-03T04:28:40.507Z,28.63
2018-02-03T04:29:40.506Z,24.36
2018-02-03T04:30:40.470Z,23.41
2018-02-03T04:31:40.478Z,26.44
2018-02-03T04:32:40.467Z,23.63
2018-02-03T04:33:40.444Z,23.99
2018-02-03T04:34:40.443Z,24.03
2018-02-03T04:35:40.422Z,25.93
2018-02-03T04:36:40.432Z,22.90
2018-02-03T04:37:40.418Z,26.64
2018-02-03T04:38:40.421Z,26.12
2018-02-03T04:39:40.407Z,28.22
2018-02-03T04:40:40.381Z,26.18
2018-02-03T04:41:40.384Z,24.14
2018-02-03T04:42:40.366Z,26.33
2018-02-03T04:43:40.355Z,23.40
2018-02-03T04:44:40.354Z,22.16
2018-02-03T04:45:40.350Z,21.76
2018-02-03T04:46:40.323Z,22.81
2018-02-03T04:47:40.334Z,23.90
2018-02-03T04:48:40.308Z,25.36
2018-02-03T04:49:40.293Z,24.59
2018-02-03T04:50:40.297Z,20.85
2018-02-03T04:51:40.280Z,21.17
2018-02-03T04:52:40.270Z,21.41
2018-02-03T04:53:40.292Z,22.04
2018-02-03T04:54:40.276Z,24.00
2018-02-03T04:55:40.245Z,24.52
2018-02-03T04:56:40.235Z,22.37
2018-02-03T04:57:40.237Z,25.06
2018-02-03T04:58:40.214Z,25.02
2018-02-03T04:59:40.229Z,24.49
2018-02-03T05:00:40.194Z,24.52
2018-02-03T05:01:40.188Z,21.10
2018-02-03T05:02:40.189Z,22.36
2018-02-03T05:03:40.169Z,24.70
2018-02-03T05:04:40.815Z,24.87
2018-02-03T05:05:40.151Z,25.30
2018-02-03T05:06:40.138Z,21.20
2018-02-03T05:07:40.156Z,22.89
2018-02-03T05:08:40.133Z,21.44
2018-02-03T05:09:40.139Z,20.88
2018-02-03T05:10:40.134Z,25.20
2018-02-03T05:11:40.112Z,24.05
2018-02-03T05:12:40.115Z,25.38
2018-02-03T05:13:40.077Z,20.68
2018-02-03T05:14:40.092Z,25.35
2018-02-03T05:15:40.070Z,25.69
2018-02-03T05:16:40.074Z,26.19
2018-02-03T05:17:40.040Z,26.65
2018-02-03T05:18:40.049Z,23.02
2018-02-03T05:19:40.029Z,23.89
2018-02-03T05:20:40.024Z,24.99
2018-02-03T05:21:40.003Z,24.01
2018-02-03T05:22:39.998Z,26.70
2018-02-03T05:23:39.992Z,23.57
2018-02-03T05:24:39.981Z,24.60
2018-02-03T05:25:39.967Z,27.96
2018-02-03T05:26:39.960Z,25.94
2018-02-03T05:27:39.949Z,24.32
2018-02-03T05:28:39.948Z,21.77
2018-02-03T05:29:39.934Z,25.89
2018-02-03T05:30:39.929Z,24.75
2018-02-03T05:31:39.917Z,23.14
2018-02-03T05:32:39.917Z,24.12
2018-02-03T05:33:40.000Z,25.62
2018-02-03T05:34:39.884Z,26.34
2018-02-03T05:35:39.876Z,25.38
2018-02-03T05:36:39.950Z,25.43
2018-02-03T05:37:42.021Z,28.01
2018-02-03T05:38:39.851Z,30.04
2018-02-03T05:39:39.897Z,25.38
2018-02-03T05:40:39.951Z,25.43
2018-02-03T05:41:40.039Z,24.73
2018-02-03T05:42:40.758Z,25.02
2018-02-03T05:43:40.152Z,28.46
2018-02-03T05:44:39.812Z,25.98
2018-02-03T05:45:39.827Z,25.96
2018-02-03T05:46:39.843Z,28.96
2018-02-03T05:47:39.778Z,30.57
2018-02-03T05:48:39.757Z,31.55
2018-02-03T05:49:39.750Z,27.62
2018-02-03T05:50:39.753Z,26.65
2018-02-03T05:51:39.746Z,28.24
2018-02-03T05:52:39.740Z,30.97
2018-02-03T05:53:39.721Z,26.35
2018-02-03T05:54:39.703Z,28.73
2018-02-03T05:55:39.713Z,29.04
2018-02-03T05:56:39.705Z,30.92
2018-02-03T05:57:39.681Z,27.57
2018-02-03T05:58:39.675Z,25.68
2018-02-03T05:59:39.674Z,26.70
2018-02-03T06:00:39.649Z,28.57
2018-02-03T06:01:39.647Z,24.38
2018-02-03T06:02:39.638Z,24.08
2018-02-03T06:03:39.628Z,26.74
2018-02-03T06:04:39.633Z,28.59
2018-02-03T06:05:39.607Z,27.24
2018-02-03T06:06:39.601Z,26.33
2018-02-03T06:07:39.596Z,26.98
2018-02-03T06:08:39.583Z,26.28
2018-02-03T06:09:39.572Z,27.80
2018-02-03T06:10:39.576Z,25.78
2018-02-03T06:11:39.565Z,28.08
2018-02-03T06:12:39.546Z,28.57
2018-02-03T06:13:39.537Z,26.85
2018-02-03T06:14:39.538Z,26.46
2018-02-03T06:15:39.519Z,26.14
2018-02-03T06:16:39.507Z,26.10
2018-02-03T06:17:39.494Z,24.64
2018-02-03T06:18:39.489Z,25.84
2018-02-03T06:19:39.474Z,28.34
2018-02-03T06:20:39.470Z,28.38
2018-02-03T06:21:39.465Z,27.58
2018-02-03T06:22:39.454Z,26.20
2018-02-03T06:23:39.447Z,28.10
2018-02-03T06:24:39.446Z,26.40
2018-02-03T06:25:39.438Z,27.48
2018-02-03T06:26:39.421Z,23.54
2018-02-03T06:27:39.408Z,23.72
2018-02-03T06:28:39.407Z,27.78
2018-02-03T06:29:39.402Z,26.09
2018-02-03T06:30:39.394Z,28.34
2018-02-03T06:31:39.374Z,26.70
2018-02-03T06:32:39.363Z,27.78
2018-02-03T06:33:39.350Z,28.15
2018-02-03T06:34:39.345Z,25.73
2018-02-03T06:35:39.334Z,27.16
2018-02-03T06:36:39.344Z,26.77
2018-02-03T06:37:39.320Z,28.13
2018-02-03T06:38:39.308Z,25.68
2018-02-03T06:39:39.310Z,29.26
2018-02-03T06:40:39.294Z,27.43
2018-02-03T06:41:39.294Z,24.77
2018-02-03T06:42:39.281Z,29.24
2018-02-03T06:43:39.280Z,27.07
2018-02-03T06:44:39.258Z,26.17
2018-02-03T06:45:39.257Z,25.72
2018-02-03T06:46:39.237Z,23.08
2018-02-03T06:47:39.239Z,25.39
2018-02-03T06:48:39.244Z,27.50
2018-02-03T06:49:39.209Z,26.50
2018-02-03T06:50:39.193Z,24.71
2018-02-03T06:51:39.205Z,24.61
2018-02-03T06:52:39.199Z,26.78
2018-02-03T06:53:39.257Z,23.23
2018-02-03T06:54:39.173Z,24.98
2018-02-03T06:55:39.153Z,25.06
2018-02-03T06:56:39.152Z,26.11
2018-02-03T06:57:39.136Z,25.13
2018-02-03T06:58:39.130Z,24.82
2018-02-03T06:59:39.119Z,22.12
2018-02-03T07:00:39.107Z,23.18
2018-02-03T07:01:39.094Z,26.77
2018-02-03T07:02:39.087Z,28.46
2018-02-03T07:03:39.102Z,28.90
2018-02-03T07:04:39.136Z,28.24
2018-02-03T07:05:39.055Z,30.71
2018-02-03T07:06:39.064Z,25.93
2018-02-03T07:07:39.039Z,23.27
2018-02-03T07:08:39.033Z,24.09
2018-02-03T07:09:39.024Z,25.15
2018-02-03T07:10:39.017Z,27.68
2018-02-03T07:11:39.190Z,23.72
2018-02-03T07:12:38.996Z,27.29
2018-02-03T07:13:38.997Z,24.71
2018-02-03T07:14:39.001Z,28.50
2018-02-03T07:15:38.996Z,27.50
2018-02-03T07:16:38.963Z,23.60
2018-02-03T07:17:38.981Z,24.60
2018-02-03T07:18:38.950Z,24.93
2018-02-03T07:19:38.949Z,26.24
2018-02-03T07:20:38.940Z,26.31
2018-02-03T07:21:38.918Z,28.37
2018-02-03T07:22:38.949Z,29.25
2018-02-03T07:23:38.897Z,26.04
2018-02-03T07:24:38.887Z,28.15
2018-02-03T07:25:38.893Z,28.50
2018-02-03T07:26:38.881Z,27.35
2018-02-03T07:27:38.917Z,28.09
2018-02-03T07:28:38.928Z,29.68
2018-02-03T07:29:38.850Z,27.77
2018-02-03T07:30:39.040Z,26.30
2018-02-03T07:31:38.822Z,26.32
2018-02-03T07:32:38.825Z,26.28
2018-02-03T07:33:38.808Z,22.49
2018-02-03T07:34:38.803Z,26.49
2018-02-03T07:35:38.792Z,24.95
2018-02-03T07:36:38.787Z,26.06
2018-02-03T07:37:38.775Z,26.14
2018-02-03T07:38:38.791Z,23.28
2018-02-03T07:39:38.754Z,25.90
2018-02-03T07:40:38.770Z,26.63
2018-02-03T07:41:38.784Z,26.82
2018-02-03T07:42:38.741Z,28.66
2018-02-03T07:43:38.733Z,26.97
2018-02-03T07:44:38.712Z,26.61
2018-02-03T07:45:38.714Z,25.28
2018-02-03T07:46:38.694Z,29.42
2018-02-03T07:47:38.694Z,27.16
2018-02-03T07:48:38.687Z,24.53
2018-02-03T07:49:38.661Z,24.72
2018-02-03T07:50:38.654Z,24.56
2018-02-03T07:51:38.658Z,28.26
2018-02-03T07:52:38.637Z,23.21
2018-02-03T07:53:38.682Z,27.35
2018-02-03T07:54:38.625Z,26.99
2018-02-03T07:55:38.603Z,26.08
2018-02-03T07:56:38.601Z,26.78
2018-02-03T07:57:41.373Z,28.72
2018-02-03T07:58:59.583Z,27.80
2018-02-03T07:59:50.073Z,27.40
2018-02-03T08:00:50.077Z,28.41
2018-02-03T08:02:01.985Z,26.21
2018-02-03T08:02:52.486Z,28.32
2018-02-03T08:03:52.478Z,27.49
2018-02-03T08:04:52.469Z,27.44
2018-02-03T08:05:52.469Z,28.78
2018-02-03T08:06:56.726Z,25.57
2018-02-03T08:07:52.567Z,27.74
2018-02-03T08:08:52.445Z,27.57
2018-02-03T08:09:52.419Z,27.47
2018-02-03T08:10:52.438Z,26.00
2018-02-03T08:11:52.409Z,22.96
2018-02-03T08:12:52.398Z,23.61
2018-02-03T08:13:52.484Z,27.96
2018-02-03T08:14:52.374Z,28.29
2018-02-03T08:15:52.371Z,29.88
2018-02-03T08:17:00.296Z,29.13
2018-02-03T08:17:52.357Z,29.97
2018-02-03T08:18:52.331Z,26.92
2018-02-03T08:19:52.343Z,26.82
2018-02-03T08:20:52.328Z,28.21
2018-02-03T08:21:52.370Z,29.34
2018-02-03T08:22:52.317Z,27.36
2018-02-03T08:23:52.312Z,26.72
2018-02-03T08:24:52.291Z,26.35
2018-02-03T08:25:52.299Z,27.82
2018-02-03T08:26:52.272Z,33.10
2018-02-03T08:27:04.305Z,1.40
2018-02-03T08:28:52.255Z,33.89
2018-02-03T08:29:52.342Z,31.06
2018-02-03T08:30:52.237Z,33.95
2018-02-03T08:31:52.237Z,32.60
2018-02-03T08:32:52.212Z,32.96
2018-02-03T08:33:52.214Z,31.77
2018-02-03T08:34:52.209Z,30.79
2018-02-03T08:35:52.200Z,31.25
2018-02-03T08:36:52.184Z,30.91
2018-02-03T08:37:52.188Z,33.80
2018-02-03T08:38:52.163Z,32.38
2018-02-03T08:39:52.167Z,30.28
2018-02-03T08:40:52.152Z,28.96
2018-02-03T08:41:52.153Z,30.06
2018-02-03T08:42:52.141Z,30.06
2018-02-03T08:43:52.121Z,33.15
2018-02-03T08:44:52.116Z,34.74
2018-02-03T08:45:52.108Z,36.71
2018-02-03T08:46:52.109Z,30.58
2018-02-03T08:47:52.095Z,32.19
2018-02-03T08:48:52.091Z,34.14
2018-02-03T08:49:52.203Z,32.75
2018-02-03T08:50:54.108Z,37.77
2018-02-03T08:51:52.914Z,35.13
2018-02-03T08:52:52.051Z,31.62
2018-02-03T08:53:52.078Z,30.74
2018-02-03T08:54:52.044Z,30.93
2018-02-03T08:55:52.021Z,27.23
2018-02-03T08:56:52.017Z,29.63
2018-02-03T08:57:52.012Z,29.73
2018-02-03T08:58:52.000Z,39.49
2018-02-03T08:59:52.079Z,39.10
2018-02-03T09:00:51.985Z,36.78
2018-02-03T09:01:51.983Z,32.47
2018-02-03T09:02:51.963Z,32.41
2018-02-03T09:03:51.974Z,31.81
2018-02-03T09:04:51.956Z,32.06
2018-02-03T09:05:51.950Z,32.67
2018-02-03T09:06:52.166Z,27.98
2018-02-03T09:07:51.933Z,30.16
2018-02-03T09:08:51.931Z,28.36
2018-02-03T09:09:51.914Z,28.33
2018-02-03T09:10:52.176Z,30.24
2018-02-03T09:11:51.893Z,29.62
2018-02-03T09:12:51.889Z,29.87
2018-02-03T09:13:51.881Z,30.51
2018-02-03T09:14:51.868Z,33.13
2018-02-03T09:15:52.397Z,27.38
2018-02-03T09:16:51.902Z,29.70
2018-02-03T09:17:51.856Z,29.83
2018-02-03T09:18:51.846Z,31.68
2018-02-03T09:19:51.861Z,26.18
2018-02-03T09:20:51.826Z,31.04
2018-02-03T09:21:51.823Z,28.38
2018-02-03T09:22:51.824Z,25.13
2018-02-03T09:23:51.825Z,23.96
2018-02-03T09:24:51.793Z,21.48
2018-02-03T09:25:51.796Z,23.44
2018-02-03T09:26:51.796Z,22.11
2018-02-03T09:27:51.786Z,22.01
2018-02-03T09:28:51.784Z,24.79
2018-02-03T09:29:51.764Z,23.03
2018-02-03T09:30:51.745Z,23.47
2018-02-03T09:31:52.407Z,25.94
2018-02-03T09:32:51.740Z,23.00
2018-02-03T09:33:51.757Z,22.77
2018-02-03T09:34:51.715Z,23.61
2018-02-03T09:35:51.723Z,20.56
2018-02-03T09:36:51.721Z,24.85
2018-02-03T09:37:51.720Z,22.05
2018-02-03T09:38:51.695Z,21.32
2018-02-03T09:39:51.730Z,20.25
2018-02-03T09:40:51.678Z,19.60
2018-02-03T09:41:51.690Z,18.72
2018-02-03T09:42:51.660Z,20.58
2018-02-03T09:43:51.656Z,21.41
2018-02-03T09:44:51.640Z,21.81
2018-02-03T09:45:51.678Z,17.69
2018-02-03T09:46:51.915Z,19.72
2018-02-03T09:47:51.615Z,20.60
2018-02-03T09:48:51.639Z,20.44
2018-02-03T09:49:51.619Z,30.20
2018-02-03T09:50:51.606Z,29.05
2018-02-03T09:51:51.613Z,24.66
2018-02-03T09:52:51.760Z,21.98
2018-02-03T09:53:51.590Z,21.05
2018-02-03T09:54:51.567Z,18.61
2018-02-03T09:55:51.586Z,16.16
2018-02-03T09:56:51.566Z,16.12
2018-02-03T09:57:51.557Z,14.81
2018-02-03T09:58:51.553Z,15.72
2018-02-03T09:59:51.533Z,15.06
2018-02-03T10:00:51.537Z,18.91
2018-02-03T10:01:51.526Z,18.39
2018-02-03T10:02:51.939Z,19.27
2018-02-03T10:03:51.596Z,19.82
2018-02-03T10:04:52.123Z,19.41
2018-02-03T10:05:51.511Z,16.85
2018-02-03T10:06:51.579Z,17.00
2018-02-03T10:07:51.530Z,14.90
2018-02-03T10:08:51.495Z,13.90
2018-02-03T10:09:51.637Z,13.86
2018-02-03T10:10:51.468Z,14.88
2018-02-03T10:11:51.474Z,16.16
2018-02-03T10:12:51.542Z,16.03
2018-02-03T10:13:51.448Z,14.12
2018-02-03T10:14:51.431Z,13.93
2018-02-03T10:15:51.433Z,15.78
2018-02-03T10:16:51.474Z,14.50
2018-02-03T10:17:51.414Z,14.64
2018-02-03T10:18:51.408Z,14.97
2018-02-03T10:19:51.408Z,14.28
2018-02-03T10:20:51.404Z,14.84
2018-02-03T10:21:51.393Z,16.37
2018-02-03T10:22:51.379Z,12.21
2018-02-03T10:23:51.378Z,12.87
2018-02-03T10:24:51.361Z,14.44
2018-02-03T10:25:51.365Z,14.88
2018-02-03T10:26:51.352Z,14.24
2018-02-03T10:27:51.376Z,15.45
2018-02-03T10:28:51.353Z,14.64
2018-02-03T10:29:51.328Z,11.16
2018-02-03T10:30:51.327Z,12.21
2018-02-03T10:31:51.317Z,13.43
2018-02-03T10:32:51.311Z,12.64
2018-02-03T10:33:51.315Z,11.02
2018-02-03T10:34:51.310Z,13.09
2018-02-03T10:35:51.333Z,10.90
2018-02-03T10:36:51.283Z,12.27
2018-02-03T10:37:51.295Z,11.54
2018-02-03T10:38:51.292Z,13.96
2018-02-03T10:39:51.269Z,14.48
2018-02-03T10:40:51.266Z,12.57
2018-02-03T10:41:51.261Z,13.65
2018-02-03T10:42:51.251Z,12.84
2018-02-03T10:43:51.236Z,11.90
2018-02-03T10:44:51.238Z,13.90
2018-02-03T10:45:51.247Z,11.91
2018-02-03T10:46:51.239Z,11.72
2018-02-03T10:47:51.228Z,10.14
2018-02-03T10:48:51.203Z,12.02
2018-02-03T10:49:51.204Z,12.01
2018-02-03T10:50:51.196Z,10.10
2018-02-03T10:51:51.202Z,10.62
2018-02-03T10:52:51.227Z,10.40
2018-02-03T10:53:51.177Z,8.83
2018-02-03T10:54:51.182Z,8.82
2018-02-03T10:55:51.163Z,8.97
2018-02-03T10:56:51.195Z,9.93
2018-02-03T10:57:51.164Z,9.39
2018-02-03T10:58:51.149Z,9.27
2018-02-03T10:59:51.144Z,9.35
2018-02-03T11:00:51.134Z,12.16
2018-02-03T11:01:51.120Z,8.76
2018-02-03T11:02:51.129Z,10.86
2018-02-03T11:03:51.117Z,9.58
2018-02-03T11:04:51.116Z,11.28
2018-02-03T11:05:51.090Z,13.07
2018-02-03T11:06:51.101Z,10.64
2018-02-03T11:07:51.083Z,8.79
2018-02-03T11:08:51.081Z,9.38
2018-02-03T11:09:51.070Z,8.58
2018-02-03T11:10:51.072Z,11.60
2018-02-03T11:11:51.062Z,9.92
2018-02-03T11:12:51.066Z,9.69
2018-02-03T11:13:51.054Z,9.64
2018-02-03T11:14:51.060Z,9.22
2018-02-03T11:15:51.042Z,9.98
2018-02-03T11:16:51.033Z,9.64
2018-02-03T11:17:51.037Z,9.00
2018-02-03T11:18:03.025Z,0.44
2018-02-03T11:19:51.014Z,10.93
2018-02-03T11:20:51.006Z,9.43
2018-02-03T11:21:51.006Z,9.34
2018-02-03T11:22:51.000Z,10.17
2018-02-03T11:23:51.012Z,9.71
2018-02-03T11:24:50.985Z,10.00
2018-02-03T11:25:50.976Z,10.06
2018-02-03T11:26:50.963Z,11.71
2018-02-03T11:27:50.981Z,8.79
2018-02-03T11:28:50.975Z,9.72
2018-02-03T11:29:50.953Z,12.24
2018-02-03T11:30:50.952Z,10.57
2018-02-03T11:31:50.940Z,9.34
2018-02-03T11:32:50.933Z,9.42
2018-02-03T11:33:50.933Z,13.86
2018-02-03T11:34:50.915Z,8.46
2018-02-03T11:35:50.925Z,7.66
2018-02-03T11:36:50.946Z,10.27
2018-02-03T11:37:50.908Z,9.99
2018-02-03T11:38:50.902Z,12.32
2018-02-03T11:39:50.886Z,10.78
2018-02-03T11:40:50.907Z,11.16
2018-02-03T11:41:50.876Z,12.38
2018-02-03T11:42:50.870Z,11.26
2018-02-03T11:43:50.868Z,9.76
2018-02-03T11:44:50.876Z,8.97
2018-02-03T11:45:50.860Z,9.50
2018-02-03T11:46:50.845Z,9.58
2018-02-03T11:47:50.858Z,12.40
2018-02-03T11:48:50.840Z,10.95
2018-02-03T11:49:50.830Z,10.10
2018-02-03T11:50:50.819Z,13.00
2018-02-03T11:51:50.816Z,13.33
2018-02-03T11:52:50.825Z,11.05
2018-02-03T11:53:50.804Z,11.58
2018-02-03T11:54:50.808Z,12.69
2018-02-03T11:55:50.812Z,11.76
2018-02-03T11:56:50.782Z,11.84
2018-02-03T11:57:50.783Z,9.88
2018-02-03T11:58:50.793Z,8.86
2018-02-03T11:59:50.765Z,10.18
2018-02-03T12:00:50.763Z,8.82
2018-02-03T12:01:50.836Z,11.46
2018-02-03T12:02:50.746Z,11.85
2018-02-03T12:03:50.764Z,9.19
2018-02-03T12:04:50.732Z,11.25
2018-02-03T12:05:50.760Z,8.55
2018-02-03T12:06:50.723Z,9.16
2018-02-03T12:07:50.721Z,14.70
2018-02-03T12:08:50.725Z,9.20
2018-02-03T12:09:50.709Z,12.33
2018-02-03T12:10:50.713Z,10.77
2018-02-03T12:11:50.701Z,8.38
2018-02-03T12:12:50.685Z,11.17
2018-02-03T12:13:50.682Z,11.44
2018-02-03T12:14:50.676Z,9.16
2018-02-03T12:15:50.681Z,9.14
2018-02-03T12:16:50.666Z,8.34
2018-02-03T12:17:50.652Z,8.51
2018-02-03T12:18:50.644Z,10.09
2018-02-03T12:19:50.655Z,8.84
2018-02-03T12:20:50.644Z,7.12
2018-02-03T12:21:50.644Z,11.49
2018-02-03T12:22:50.621Z,9.26
2018-02-03T12:23:50.629Z,9.13
2018-02-03T12:24:50.615Z,10.96
2018-02-03T12:25:50.615Z,10.76
2018-02-03T12:26:50.608Z,11.42
2018-02-03T12:27:50.596Z,12.50
2018-02-03T12:28:50.593Z,12.92
2018-02-03T12:29:50.581Z,15.09
2018-02-03T12:30:50.578Z,11.20
2018-02-03T12:31:50.571Z,13.38
2018-02-03T12:32:50.573Z,12.31
2018-02-03T12:33:50.621Z,10.84
2018-02-03T12:34:50.571Z,11.04
2018-02-03T12:35:50.540Z,8.59
2018-02-03T12:36:50.568Z,9.95
2018-02-03T12:37:50.532Z,9.59
2018-02-03T12:38:50.527Z,8.62
2018-02-03T12:39:50.515Z,7.86
2018-02-03T12:40:50.508Z,10.26
2018-02-03T12:41:50.537Z,9.41
2018-02-03T12:42:50.489Z,8.57
2018-02-03T12:43:50.492Z,10.29
2018-02-03T12:44:50.541Z,10.62
2018-02-03T12:45:50.510Z,9.48
2018-02-03T12:46:50.472Z,9.91
2018-02-03T12:47:50.459Z,10.96
2018-02-03T12:48:50.460Z,9.91
2018-02-03T12:49:50.464Z,11.77
2018-02-03T12:50:50.444Z,8.75
2018-02-03T12:51:50.446Z,7.73
2018-02-03T12:52:50.431Z,9.43
2018-02-03T12:53:50.420Z,9.56
2018-02-03T12:54:50.414Z,7.15
2018-02-03T12:55:50.404Z,7.24
2018-02-03T12:56:50.404Z,9.00
2018-02-03T12:57:50.414Z,9.50
2018-02-03T12:58:50.394Z,10.11
2018-02-03T12:59:50.384Z,8.45
2018-02-03T13:00:50.394Z,8.53
2018-02-03T13:01:50.372Z,8.58
2018-02-03T13:02:50.357Z,7.12
2018-02-03T13:03:50.353Z,6.75
2018-02-03T13:04:50.355Z,9.95
2018-02-03T13:05:50.344Z,8.83
2018-02-03T13:06:50.348Z,8.95
2018-02-03T13:07:50.324Z,10.82
2018-02-03T13:08:50.312Z,12.34
2018-02-03T13:09:50.317Z,8.56
2018-02-03T13:10:50.304Z,7.76
2018-02-03T13:11:50.310Z,7.06
2018-02-03T13:12:50.281Z,8.44
2018-02-03T13:13:50.289Z,8.61
2018-02-03T13:14:50.295Z,7.51
2018-02-03T13:15:50.280Z,8.63
2018-02-03T13:16:50.269Z,9.62
2018-02-03T13:17:50.256Z,9.33
2018-02-03T13:18:50.252Z,11.20
2018-02-03T13:19:50.245Z,13.90
2018-02-03T13:20:50.252Z,13.03
2018-02-03T13:21:50.241Z,10.32
2018-02-03T13:22:50.244Z,15.99
2018-02-03T13:23:50.228Z,11.38
2018-02-03T13:24:50.214Z,10.42
2018-02-03T13:25:50.212Z,11.36
2018-02-03T13:26:50.206Z,9.56
2018-02-03T13:27:50.187Z,9.35
2018-02-03T13:28:50.175Z,8.58
2018-02-03T13:29:50.169Z,10.51
2018-02-03T13:30:50.165Z,9.13
2018-02-03T13:31:50.171Z,11.13
2018-02-03T13:32:50.152Z,11.84